Time;durP1;ratioP1;P1;durP2;ratioP2;P2;SDS_P1;SDS_P2;PMS_P1;PMS_P2;Temp;Humidity;BMP_temperature;BMP_pressure;BME280_temperature;BME280_humidity;BME280_pressure;Samples;Min_cycle;Max_cycle;Signal;HPM_P1;HPM_P2
2022/07/18 00:01:41;;;;;;;2.50;2.25;;;;;;;;;;5093187;28;24433;-46
2022/07/18 00:04:06;;;;;;;4.90;2.30;;;;;;;;;;5094176;28;24422;-46
2022/07/18 00:06:32;;;;;;;2.40;2.20;;;;;;;;;;5094068;28;24452;-46
2022/07/18 00:08:57;;;;;;;2.80;2.50;;;;;;;;;;5094385;28;24432;-47
2022/07/18 00:11:22;;;;;;;2.70;2.40;;;;;;;;;;5095719;28;24557;-46
2022/07/18 00:13:47;;;;;;;3.30;2.50;;;;;;;;;;5098575;28;24502;-46
2022/07/18 00:16:12;;;;;;;3.70;2.60;;;;;;;;;;5102614;28;24984;-46
2022/07/18 00:18:38;;;;;;;2.50;2.30;;;;;;;;;;5097692;28;25010;-46
2022/07/18 00:21:03;;;;;;;2.80;2.20;;;;;;;;;;5092661;27;25008;-46
2022/07/18 00:23:28;;;;;;;3.30;2.10;;;;;;;;;;5096325;28;24417;-46
2022/07/18 00:25:53;;;;;;;2.23;2.03;;;;;;;;;;5101395;27;24431;-46
2022/07/18 00:28:18;;;;;;;4.20;2.30;;;;;;;;;;5095138;28;25186;-46
2022/07/18 00:30:43;;;;;;;2.30;2.10;;;;;;;;;;5103014;28;24518;-46
2022/07/18 00:33:08;;;;;;;2.40;2.00;;;;;;;;;;5100161;28;24413;-46
2022/07/18 00:35:34;;;;;;;2.50;2.30;;;;;;;;;;5095343;27;24540;-47
2022/07/18 00:38:01;;;;;;;2.60;2.40;;;;;;;;;;5102364;28;24567;-47
2022/07/18 00:40:26;;;;;;;2.53;2.33;;;;;;;;;;5098227;28;24426;-47
2022/07/18 00:42:51;;;;;;;2.10;1.90;;;;;;;;;;5098765;28;24433;-47
2022/07/18 00:45:16;;;;;;;2.50;2.30;;;;;;;;;;5093896;27;24424;-47
2022/07/18 00:47:41;;;;;;;2.70;2.22;;;;;;;;;;5099989;28;25052;-47
2022/07/18 00:50:07;;;;;;;3.40;2.23;;;;;;;;;;5095488;27;24594;-47
2022/07/18 00:52:33;;;;;;;2.45;2.17;;;;;;;;;;5100088;28;24430;-47
2022/07/18 00:54:58;;;;;;;2.40;2.20;;;;;;;;;;5094604;28;24428;-46
2022/07/18 00:57:23;;;;;;;2.00;1.80;;;;;;;;;;5101793;28;24489;-47
2022/07/18 01:02:32;;;;;;;3.40;2.40;;;;;;;;;;5095998;27;25254;-47
2022/07/18 01:04:57;;;;;;;3.47;2.30;;;;;;;;;;5100072;27;24437;-47
2022/07/18 01:07:22;;;;;;;2.35;2.10;;;;;;;;;;5099576;28;24851;-47
2022/07/18 01:09:48;;;;;;;2.40;2.20;;;;;;;;;;5101514;27;24432;-46
2022/07/18 01:12:13;;;;;;;2.80;2.20;;;;;;;;;;5101327;27;24484;-47
2022/07/18 01:14:38;;;;;;;2.70;2.20;;;;;;;;;;5096443;28;24476;-47
2022/07/18 01:17:11;;;;;;;3.10;2.10;;;;;;;;;;5089867;28;25294;-47
2022/07/18 01:19:36;;;;;;;3.22;2.60;;;;;;;;;;5092290;28;24607;-47
2022/07/18 01:22:01;;;;;;;2.70;2.50;;;;;;;;;;5099345;28;24465;-47
2022/07/18 01:24:26;;;;;;;2.30;2.10;;;;;;;;;;5102627;27;24430;-47
2022/07/18 01:26:51;;;;;;;2.78;2.30;;;;;;;;;;5098054;27;24516;-46
2022/07/18 01:29:17;;;;;;;2.30;2.10;;;;;;;;;;5101260;27;24438;-47
2022/07/18 01:31:42;;;;;;;2.40;2.20;;;;;;;;;;5101139;28;24451;-47
2022/07/18 01:34:07;;;;;;;3.17;2.10;;;;;;;;;;5097962;28;24783;-46
2022/07/18 01:36:33;;;;;;;3.00;2.70;;;;;;;;;;5087978;28;24422;-47
2022/07/18 01:38:58;;;;;;;3.43;2.33;;;;;;;;;;5093150;28;24530;-47
2022/07/18 01:41:23;;;;;;;2.60;2.40;;;;;;;;;;5093565;28;24959;-47
2022/07/18 01:43:48;;;;;;;2.50;2.30;;;;;;;;;;5094775;27;25189;-46
2022/07/18 01:46:13;;;;;;;2.88;2.40;;;;;;;;;;5088367;28;24420;-47
2022/07/18 01:48:39;;;;;;;2.60;2.40;;;;;;;;;;5098117;27;24430;-47
2022/07/18 01:51:04;;;;;;;2.50;2.30;;;;;;;;;;5101421;28;24425;-46
2022/07/18 01:53:29;;;;;;;3.00;2.70;;;;;;;;;;5096507;27;24501;-47
2022/07/18 01:55:54;;;;;;;2.80;2.60;;;;;;;;;;5100566;28;24418;-47
2022/07/18 01:58:19;;;;;;;3.42;2.97;;;;;;;;;;5100540;27;24517;-47
2022/07/18 02:00:45;;;;;;;3.90;2.50;;;;;;;;;;5102132;28;25025;-47
2022/07/18 02:03:10;;;;;;;3.33;2.80;;;;;;;;;;5088233;28;24808;-47
2022/07/18 02:05:35;;;;;;;3.05;2.75;;;;;;;;;;5097113;28;25019;-47
2022/07/18 02:08:00;;;;;;;2.97;2.78;;;;;;;;;;5102666;28;24428;-47
2022/07/18 02:10:25;;;;;;;3.77;2.70;;;;;;;;;;5099434;28;24531;-46
2022/07/18 02:12:50;;;;;;;2.60;2.20;;;;;;;;;;5101899;27;24421;-46
2022/07/18 02:15:16;;;;;;;3.10;2.80;;;;;;;;;;5093604;28;24430;-46
2022/07/18 02:17:41;;;;;;;2.90;2.70;;;;;;;;;;5093918;28;24430;-46
2022/07/18 02:20:08;;;;;;;2.77;2.57;;;;;;;;;;5089929;28;24425;-46
2022/07/18 02:22:33;;;;;;;2.80;2.60;;;;;;;;;;5096585;27;24418;-47
2022/07/18 02:24:58;;;;;;;3.72;2.78;;;;;;;;;;5098248;28;24986;-46
2022/07/18 02:27:24;;;;;;;3.00;2.70;;;;;;;;;;5100068;27;24800;-46
2022/07/18 02:29:49;;;;;;;3.57;3.00;;;;;;;;;;5094953;28;24976;-46
2022/07/18 02:32:15;;;;;;;3.10;2.80;;;;;;;;;;5099882;28;24443;-47
2022/07/18 02:34:40;;;;;;;4.90;3.60;;;;;;;;;;5094690;28;24414;-46
2022/07/18 02:37:05;;;;;;;4.10;2.70;;;;;;;;;;5095803;28;24422;-46
2022/07/18 02:39:30;;;;;;;3.57;3.27;;;;;;;;;;5097564;28;24420;-46
2022/07/18 02:41:55;;;;;;;3.43;3.10;;;;;;;;;;5102035;27;25091;-46
2022/07/18 02:44:21;;;;;;;3.30;3.00;;;;;;;;;;5097257;28;25015;-48
2022/07/18 02:46:46;;;;;;;4.00;2.80;;;;;;;;;;5097810;28;24421;-47
2022/07/18 02:49:26;;;;;;;3.20;2.90;;;;;;;;;;5101152;28;24470;-46
2022/07/18 02:51:51;;;;;;;3.30;3.00;;;;;;;;;;5090955;28;24429;-46
2022/07/18 02:54:16;;;;;;;2.90;2.70;;;;;;;;;;5096086;28;24414;-47
2022/07/18 02:56:42;;;;;;;3.40;3.10;;;;;;;;;;5093580;28;24517;-44
2022/07/18 02:59:07;;;;;;;3.10;2.90;;;;;;;;;;5099029;28;24849;-46
2022/07/18 03:01:32;;;;;;;3.28;2.97;;;;;;;;;;5096758;28;24422;-45
2022/07/18 03:03:59;;;;;;;3.30;3.00;;;;;;;;;;5096176;28;24414;-46
2022/07/18 03:06:24;;;;;;;3.10;2.80;;;;;;;;;;5098436;27;24973;-45
2022/07/18 03:08:49;;;;;;;2.80;2.60;;;;;;;;;;5095965;28;24846;-45
2022/07/18 03:11:14;;;;;;;3.00;2.80;;;;;;;;;;5101559;28;25029;-46
2022/07/18 03:13:39;;;;;;;3.10;2.80;;;;;;;;;;5094561;28;24417;-45
2022/07/18 03:16:05;;;;;;;3.75;2.90;;;;;;;;;;5089185;28;24534;-46
2022/07/18 03:18:30;;;;;;;2.60;2.40;;;;;;;;;;5093890;28;24934;-46
2022/07/18 03:20:55;;;;;;;4.00;2.90;;;;;;;;;;5090945;28;24525;-45
2022/07/18 03:23:20;;;;;;;4.18;3.00;;;;;;;;;;5093153;28;24575;-45
2022/07/18 03:25:45;;;;;;;4.20;3.00;;;;;;;;;;5102014;28;24986;-44
2022/07/18 03:28:10;;;;;;;3.23;2.53;;;;;;;;;;5092016;28;24995;-45
2022/07/18 03:30:36;;;;;;;3.60;2.90;;;;;;;;;;5091498;28;24433;-46
2022/07/18 03:33:01;;;;;;;3.20;2.70;;;;;;;;;;5101902;28;24444;-46
2022/07/18 03:35:26;;;;;;;2.93;2.73;;;;;;;;;;5093668;28;24551;-46
2022/07/18 03:37:51;;;;;;;2.70;2.50;;;;;;;;;;5096377;28;24982;-46
2022/07/18 03:40:16;;;;;;;3.20;2.60;;;;;;;;;;5093498;28;24436;-46
2022/07/18 03:42:41;;;;;;;3.78;2.60;;;;;;;;;;5099648;28;24768;-46
2022/07/18 03:45:07;;;;;;;3.28;2.80;;;;;;;;;;5088370;28;24525;-46
2022/07/18 03:47:32;;;;;;;3.28;2.50;;;;;;;;;;5092123;28;24429;-46
2022/07/18 03:49:57;;;;;;;3.30;3.00;;;;;;;;;;5092346;28;24606;-46
2022/07/18 03:52:22;;;;;;;3.13;2.92;;;;;;;;;;5088540;28;24544;-46
2022/07/18 03:54:47;;;;;;;2.70;2.50;;;;;;;;;;5085342;28;25029;-46
2022/07/18 03:57:13;;;;;;;3.65;3.15;;;;;;;;;;5092322;28;24454;-47
2022/07/18 03:59:38;;;;;;;4.37;3.10;;;;;;;;;;5089834;28;24426;-46
2022/07/18 04:02:03;;;;;;;4.37;3.00;;;;;;;;;;5104970;28;24514;-47
2022/07/18 04:04:28;;;;;;;4.10;2.90;;;;;;;;;;5099006;28;24422;-46
2022/07/18 04:06:54;;;;;;;3.43;2.57;;;;;;;;;;5092130;28;24935;-46
2022/07/18 04:09:19;;;;;;;2.77;2.57;;;;;;;;;;5096836;28;24436;-46
2022/07/18 04:11:44;;;;;;;2.92;2.72;;;;;;;;;;5103661;28;25028;-46
2022/07/18 04:14:09;;;;;;;3.67;2.55;;;;;;;;;;5097237;28;24421;-46
2022/07/18 04:16:34;;;;;;;2.80;2.60;;;;;;;;;;5093278;28;24414;-47
2022/07/18 04:18:59;;;;;;;4.38;2.80;;;;;;;;;;5103014;28;24563;-47
2022/07/18 04:21:24;;;;;;;3.87;3.13;;;;;;;;;;5098156;28;24433;-46
2022/07/18 04:23:49;;;;;;;5.45;3.28;;;;;;;;;;5098402;28;25006;-46
2022/07/18 04:26:15;;;;;;;4.13;3.40;;;;;;;;;;5099830;28;25040;-47
2022/07/18 04:28:40;;;;;;;4.03;3.00;;;;;;;;;;5109484;28;24485;-45
2022/07/18 04:31:05;;;;;;;5.65;3.20;;;;;;;;;;5098259;28;24422;-46
2022/07/18 04:33:30;;;;;;;4.00;2.90;;;;;;;;;;5103439;28;24430;-45
2022/07/18 04:35:55;;;;;;;4.70;2.80;;;;;;;;;;5100210;28;24514;-46
2022/07/18 04:38:20;;;;;;;3.40;2.97;;;;;;;;;;5100000;27;24427;-47
2022/07/18 04:40:46;;;;;;;5.07;2.95;;;;;;;;;;5091962;28;24618;-45
2022/07/18 04:43:11;;;;;;;5.70;3.00;;;;;;;;;;5095499;27;24437;-45
2022/07/18 04:45:36;;;;;;;4.60;3.10;;;;;;;;;;5092602;28;24440;-45
2022/07/18 04:48:02;;;;;;;3.50;3.20;;;;;;;;;;5099667;28;24517;-46
2022/07/18 04:50:29;;;;;;;4.18;3.38;;;;;;;;;;5088375;28;24918;-46
2022/07/18 04:52:54;;;;;;;4.22;2.90;;;;;;;;;;5099366;27;24426;-47
2022/07/18 04:55:21;;;;;;;4.63;3.40;;;;;;;;;;5091720;28;24431;-46
2022/07/18 04:57:46;;;;;;;3.60;2.88;;;;;;;;;;5099423;27;24498;-46
2022/07/18 05:00:14;;;;;;;3.10;2.80;;;;;;;;;;5093391;28;24437;-46
2022/07/18 05:02:40;;;;;;;2.83;2.60;;;;;;;;;;5097282;28;24529;-46
2022/07/18 05:05:06;;;;;;;3.40;2.50;;;;;;;;;;5097495;27;24516;-46
2022/07/18 05:07:31;;;;;;;3.27;2.50;;;;;;;;;;5102898;27;24510;-46
2022/07/18 05:09:56;;;;;;;3.63;2.60;;;;;;;;;;5098540;27;24526;-45
2022/07/18 05:12:23;;;;;;;3.30;2.40;;;;;;;;;;5098588;27;24464;-45
2022/07/18 05:14:48;;;;;;;3.58;2.70;;;;;;;;;;5098738;28;24434;-45
2022/07/18 05:17:13;;;;;;;3.10;2.70;;;;;;;;;;5096292;28;24424;-45
2022/07/18 05:19:38;;;;;;;3.78;2.42;;;;;;;;;;5086303;28;25021;-46
2022/07/18 05:22:03;;;;;;;2.60;2.40;;;;;;;;;;5091167;27;24425;-45
2022/07/18 05:24:28;;;;;;;3.00;2.45;;;;;;;;;;5099835;27;24514;-46
2022/07/18 05:26:54;;;;;;;3.88;2.28;;;;;;;;;;5094245;28;24951;-46
2022/07/18 05:29:19;;;;;;;2.70;2.50;;;;;;;;;;5095258;28;24436;-46
2022/07/18 05:31:44;;;;;;;3.50;3.10;;;;;;;;;;5091716;28;24426;-46
2022/07/18 05:34:09;;;;;;;2.60;2.30;;;;;;;;;;5090714;27;24422;-46
2022/07/18 05:36:34;;;;;;;3.67;2.23;;;;;;;;;;5093804;28;24433;-46
2022/07/18 05:39:00;;;;;;;4.67;2.23;;;;;;;;;;5092497;28;24974;-46
2022/07/18 05:41:25;;;;;;;3.07;2.10;;;;;;;;;;5090481;28;24544;-46
2022/07/18 05:43:50;;;;;;;2.87;2.17;;;;;;;;;;5088653;28;25011;-46
2022/07/18 05:46:15;;;;;;;2.50;1.80;;;;;;;;;;5090208;28;24513;-46
2022/07/18 05:48:41;;;;;;;2.60;2.30;;;;;;;;;;5086195;28;24457;-46
2022/07/18 05:51:06;;;;;;;2.80;2.00;;;;;;;;;;5090785;27;24732;-46
2022/07/18 05:53:31;;;;;;;2.05;1.85;;;;;;;;;;5088531;28;25057;-46
2022/07/18 05:55:57;;;;;;;2.15;1.95;;;;;;;;;;5094735;28;24541;-46
2022/07/18 05:58:22;;;;;;;2.50;1.70;;;;;;;;;;5090319;28;24426;-46
2022/07/18 06:00:47;;;;;;;2.20;2.00;;;;;;;;;;5096132;28;24533;-46
2022/07/18 06:03:12;;;;;;;1.93;1.73;;;;;;;;;;5086076;27;24479;-45
2022/07/18 06:05:37;;;;;;;2.30;1.80;;;;;;;;;;5095555;27;24482;-45
2022/07/18 06:08:03;;;;;;;2.20;1.80;;;;;;;;;;5092335;28;24454;-45
2022/07/18 06:10:28;;;;;;;2.00;1.80;;;;;;;;;;5087886;27;24508;-45
2022/07/18 06:12:54;;;;;;;3.80;2.13;;;;;;;;;;5102853;27;24632;-45
2022/07/18 06:15:19;;;;;;;4.40;2.28;;;;;;;;;;5093204;28;25044;-45
2022/07/18 06:17:44;;;;;;;3.47;2.40;;;;;;;;;;5089406;28;24426;-46
2022/07/18 06:20:10;;;;;;;2.40;1.80;;;;;;;;;;5086051;28;24433;-45
2022/07/18 06:22:36;;;;;;;2.90;1.90;;;;;;;;;;5089200;28;24894;-45
2022/07/18 06:25:01;;;;;;;2.27;2.00;;;;;;;;;;5088209;28;24968;-44
2022/07/18 06:27:26;;;;;;;2.58;2.22;;;;;;;;;;5084926;28;24455;-46
2022/07/18 06:29:51;;;;;;;2.53;2.07;;;;;;;;;;5099785;28;24464;-45
2022/07/18 06:32:17;;;;;;;2.60;2.10;;;;;;;;;;5088864;28;24406;-45
2022/07/18 06:34:42;;;;;;;3.50;2.30;;;;;;;;;;5089501;28;24509;-46
2022/07/18 06:37:07;;;;;;;5.80;2.70;;;;;;;;;;5104331;28;24452;-45
2022/07/18 06:39:32;;;;;;;5.90;2.33;;;;;;;;;;5102042;28;24478;-45
2022/07/18 06:41:57;;;;;;;3.35;2.00;;;;;;;;;;5091524;28;24436;-46
2022/07/18 06:44:22;;;;;;;5.73;2.40;;;;;;;;;;5097213;28;24990;-46
2022/07/18 06:46:47;;;;;;;4.87;2.00;;;;;;;;;;5111635;27;24439;-45
2022/07/18 06:49:13;;;;;;;5.28;2.40;;;;;;;;;;5114436;27;25069;-46
2022/07/18 06:51:38;;;;;;;2.45;2.08;;;;;;;;;;5107500;27;24410;-45
2022/07/18 06:54:03;;;;;;;2.90;1.90;;;;;;;;;;5102555;28;24413;-45
2022/07/18 06:56:28;;;;;;;2.90;2.10;;;;;;;;;;5107186;28;24396;-46
2022/07/18 06:58:53;;;;;;;4.50;1.90;;;;;;;;;;5106008;28;24767;-45
2022/07/18 07:01:19;;;;;;;2.10;1.60;;;;;;;;;;5106704;28;25061;-47
2022/07/18 07:03:45;;;;;;;2.28;1.80;;;;;;;;;;5102118;28;24955;-45
2022/07/18 07:06:10;;;;;;;2.17;1.90;;;;;;;;;;5105916;28;24521;-46
2022/07/18 07:08:35;;;;;;;2.90;2.20;;;;;;;;;;5102057;28;25287;-46
2022/07/18 07:11:00;;;;;;;3.75;2.10;;;;;;;;;;5090214;28;24433;-45
2022/07/18 07:13:26;;;;;;;2.22;1.70;;;;;;;;;;5091512;28;24523;-45
2022/07/18 07:15:51;;;;;;;2.30;1.77;;;;;;;;;;5113604;27;24434;-45
2022/07/18 07:18:16;;;;;;;2.60;1.80;;;;;;;;;;5097410;28;24516;-46
2022/07/18 07:20:41;;;;;;;3.10;1.63;;;;;;;;;;5100535;28;24699;-47
2022/07/18 07:23:09;;;;;;;2.40;1.80;;;;;;;;;;5105880;28;24450;-45
2022/07/18 07:25:35;;;;;;;3.40;2.20;;;;;;;;;;5097811;28;24414;-45
2022/07/18 07:28:01;;;;;;;2.83;2.20;;;;;;;;;;5092793;28;24480;-45
2022/07/18 07:30:26;;;;;;;2.10;1.90;;;;;;;;;;5101742;28;24453;-46
2022/07/18 07:32:51;;;;;;;1.70;1.60;;;;;;;;;;5101213;28;24776;-47
2022/07/18 07:35:17;;;;;;;2.90;1.90;;;;;;;;;;5101516;28;24479;-46
2022/07/18 07:37:43;;;;;;;3.03;1.80;;;;;;;;;;5089899;28;24386;-45
2022/07/18 07:40:09;;;;;;;3.22;2.05;;;;;;;;;;5090195;28;24402;-46
2022/07/18 07:42:34;;;;;;;2.87;2.17;;;;;;;;;;5089726;28;24392;-46
2022/07/18 07:44:59;;;;;;;2.10;1.90;;;;;;;;;;5090503;28;24429;-46
2022/07/18 07:47:24;;;;;;;2.80;1.70;;;;;;;;;;5107098;28;24425;-46
2022/07/18 07:49:49;;;;;;;1.88;1.70;;;;;;;;;;5109686;28;24508;-46
2022/07/18 07:52:17;;;;;;;1.70;1.60;;;;;;;;;;5110420;28;24404;-46
2022/07/18 07:54:44;;;;;;;2.10;1.63;;;;;;;;;;5110169;28;24450;-47
2022/07/18 07:57:09;;;;;;;2.15;1.65;;;;;;;;;;5109603;28;24973;-46
2022/07/18 07:59:34;;;;;;;1.90;1.50;;;;;;;;;;5108690;28;24498;-46
2022/07/18 08:02:00;;;;;;;3.08;1.60;;;;;;;;;;5109234;28;24970;-45
2022/07/18 08:04:25;;;;;;;2.27;1.83;;;;;;;;;;5110000;28;24377;-46
2022/07/18 08:06:50;;;;;;;2.95;1.88;;;;;;;;;;5110049;28;24941;-46
2022/07/18 08:09:15;;;;;;;1.90;1.60;;;;;;;;;;5095683;28;24437;-46
2022/07/18 08:11:41;;;;;;;2.17;1.73;;;;;;;;;;5089533;28;24435;-46
2022/07/18 08:14:06;;;;;;;2.63;1.60;;;;;;;;;;5088977;28;24399;-46
2022/07/18 08:16:31;;;;;;;3.57;1.73;;;;;;;;;;5093273;28;24555;-46
2022/07/18 08:18:56;;;;;;;2.37;1.70;;;;;;;;;;5109262;28;24685;-46
2022/07/18 08:21:21;;;;;;;1.90;1.70;;;;;;;;;;5091278;28;24485;-46
2022/07/18 08:23:48;;;;;;;3.20;1.73;;;;;;;;;;5109688;28;24545;-46
2022/07/18 08:26:13;;;;;;;2.70;1.90;;;;;;;;;;5109119;28;24432;-45
2022/07/18 08:28:38;;;;;;;2.50;1.60;;;;;;;;;;5089849;28;24498;-45
2022/07/18 08:31:03;;;;;;;3.10;1.60;;;;;;;;;;5088878;28;24524;-44
2022/07/18 08:33:28;;;;;;;2.20;1.38;;;;;;;;;;5097849;28;24433;-45
2022/07/18 08:35:53;;;;;;;1.60;1.50;;;;;;;;;;5109716;28;24494;-45
2022/07/18 08:38:18;;;;;;;8.90;1.70;;;;;;;;;;5109043;28;24374;-46
2022/07/18 08:40:46;;;;;;;1.58;1.33;;;;;;;;;;5109715;28;24739;-47
2022/07/18 08:43:11;;;;;;;2.50;1.40;;;;;;;;;;5106092;28;24394;-46
2022/07/18 08:45:37;;;;;;;1.80;1.50;;;;;;;;;;5096004;28;24998;-46
2022/07/18 08:48:02;;;;;;;1.70;1.43;;;;;;;;;;5087234;28;24402;-45
2022/07/18 08:50:27;;;;;;;2.28;1.50;;;;;;;;;;5087890;28;24441;-46
2022/07/18 08:52:53;;;;;;;2.38;1.70;;;;;;;;;;5088251;28;24489;-46
2022/07/18 08:55:20;;;;;;;1.60;1.50;;;;;;;;;;5100023;28;24564;-46
2022/07/18 08:57:45;;;;;;;1.80;1.57;;;;;;;;;;5108927;28;24501;-46
2022/07/18 09:00:10;;;;;;;2.70;1.60;;;;;;;;;;5108926;28;24740;-46
2022/07/18 09:02:36;;;;;;;2.58;1.55;;;;;;;;;;5109078;28;24972;-46
2022/07/18 09:05:02;;;;;;;1.90;1.50;;;;;;;;;;5106758;28;24963;-46
2022/07/18 09:07:29;;;;;;;1.70;1.60;;;;;;;;;;5108621;28;24504;-46
2022/07/18 09:09:57;;;;;;;2.33;1.90;;;;;;;;;;5108995;28;24853;-46
2022/07/18 09:12:22;;;;;;;3.75;1.85;;;;;;;;;;5108520;28;24888;-46
2022/07/18 09:14:48;;;;;;;3.33;2.30;;;;;;;;;;5105673;28;24960;-46
2022/07/18 09:17:18;;;;;;;3.30;1.63;;;;;;;;;;5097969;28;25144;-46
2022/07/18 09:19:57;;;;;;;2.15;1.55;;;;;;;;;;5108546;28;24827;-46
2022/07/18 09:22:23;;;;;;;2.10;1.50;;;;;;;;;;5108917;28;24698;-46
2022/07/18 09:24:56;;;;;;;3.70;1.80;;;;;;;;;;5108057;28;24951;-47
2022/07/18 09:27:33;;;;;;;2.30;1.60;;;;;;;;;;5105790;28;24495;-46
2022/07/18 09:30:16;;;;;;;2.10;1.67;;;;;;;;;;5108080;28;24409;-46
2022/07/18 09:32:42;;;;;;;2.10;1.60;;;;;;;;;;5108173;28;24401;-47
2022/07/18 09:35:09;;;;;;;2.35;1.60;;;;;;;;;;5108370;28;24389;-46
2022/07/18 09:37:35;;;;;;;1.70;1.60;;;;;;;;;;5099409;28;24485;-46
2022/07/18 09:40:20;;;;;;;4.40;2.10;;;;;;;;;;5087659;28;24920;-46
2022/07/18 09:42:50;;;;;;;2.28;1.52;;;;;;;;;;5087468;28;24401;-45
2022/07/18 09:45:15;;;;;;;2.40;1.60;;;;;;;;;;5087216;28;25065;-46
2022/07/18 09:47:57;;;;;;;2.03;1.70;;;;;;;;;;5088030;28;24509;-46
2022/07/18 09:50:26;;;;;;;3.55;1.55;;;;;;;;;;5087043;28;24431;-46
2022/07/18 09:52:55;;;;;;;2.65;1.80;;;;;;;;;;5087538;28;25041;-47
2022/07/18 09:55:20;;;;;;;2.15;1.60;;;;;;;;;;5093825;28;24500;-46
2022/07/18 09:57:55;;;;;;;3.30;1.77;;;;;;;;;;5105309;28;24802;-46
2022/07/18 10:00:21;;;;;;;1.70;1.50;;;;;;;;;;5094074;28;24881;-48
2022/07/18 10:02:46;;;;;;;2.10;1.80;;;;;;;;;;5107683;28;24477;-46
2022/07/18 10:05:11;;;;;;;2.63;2.20;;;;;;;;;;5107552;28;24923;-45
2022/07/18 10:07:37;;;;;;;2.97;1.60;;;;;;;;;;5107519;28;24903;-45
2022/07/18 10:10:02;;;;;;;3.13;2.00;;;;;;;;;;5106012;28;24485;-45
2022/07/18 10:12:27;;;;;;;1.87;1.53;;;;;;;;;;5107266;28;24935;-46
2022/07/18 10:14:52;;;;;;;3.45;1.70;;;;;;;;;;5107549;28;24461;-46
2022/07/18 10:17:18;;;;;;;2.45;1.50;;;;;;;;;;5106790;28;24441;-46
2022/07/18 10:19:43;;;;;;;3.20;1.80;;;;;;;;;;5106604;28;24406;-45
2022/07/18 10:22:09;;;;;;;1.70;1.60;;;;;;;;;;5100108;28;24469;-46
2022/07/18 10:24:38;;;;;;;2.05;1.70;;;;;;;;;;5098937;28;24424;-45
2022/07/18 10:27:12;;;;;;;2.80;1.63;;;;;;;;;;5110014;27;24413;-46
2022/07/18 10:29:37;;;;;;;4.33;2.00;;;;;;;;;;5105554;28;24421;-46
2022/07/18 10:32:03;;;;;;;2.97;1.77;;;;;;;;;;5110625;27;24416;-46
2022/07/18 10:34:32;;;;;;;3.60;2.28;;;;;;;;;;5103499;27;24422;-46
2022/07/18 10:37:01;;;;;;;3.22;1.70;;;;;;;;;;5101631;28;24440;-45
2022/07/18 10:39:33;;;;;;;2.78;2.00;;;;;;;;;;5102010;28;24499;-46
2022/07/18 10:42:00;;;;;;;3.17;1.80;;;;;;;;;;5103681;28;24459;-47
2022/07/18 10:44:25;;;;;;;3.78;1.88;;;;;;;;;;5101193;28;24428;-47
2022/07/18 10:47:02;;;;;;;2.60;2.00;;;;;;;;;;5083511;28;24426;-46
2022/07/18 10:49:47;;;;;;;4.65;1.90;;;;;;;;;;5093011;28;24444;-46
2022/07/18 10:52:25;;;;;;;2.10;1.70;;;;;;;;;;5081157;28;24456;-46
2022/07/18 10:55:02;;;;;;;2.30;2.00;;;;;;;;;;5092365;28;24410;-46
2022/07/18 10:57:28;;;;;;;2.20;1.90;;;;;;;;;;5081331;28;24971;-45
2022/07/18 10:59:59;;;;;;;2.53;2.15;;;;;;;;;;5086679;28;24422;-45
2022/07/18 11:02:30;;;;;;;2.60;1.73;;;;;;;;;;5081619;28;24498;-45
2022/07/18 11:04:55;;;;;;;2.30;1.70;;;;;;;;;;5088208;28;24422;-44
2022/07/18 11:07:20;;;;;;;2.10;1.70;;;;;;;;;;5097646;28;24931;-45
2022/07/18 11:09:46;;;;;;;1.90;1.70;;;;;;;;;;5089181;28;24468;-48
2022/07/18 11:12:18;;;;;;;2.10;1.80;;;;;;;;;;5084323;28;24460;-46
2022/07/18 11:15:02;;;;;;;3.03;2.03;;;;;;;;;;5096610;28;25084;-46
2022/07/18 11:17:46;;;;;;;2.20;1.70;;;;;;;;;;5097851;28;24449;-46
2022/07/18 11:20:24;;;;;;;2.45;1.50;;;;;;;;;;5102325;28;24524;-45
2022/07/18 11:22:50;;;;;;;2.00;1.90;;;;;;;;;;5092459;28;24509;-46
2022/07/18 11:25:16;;;;;;;3.00;1.87;;;;;;;;;;5102578;28;25070;-45
2022/07/18 11:27:42;;;;;;;2.30;1.70;;;;;;;;;;5102007;28;24490;-45
2022/07/18 11:30:07;;;;;;;3.10;1.90;;;;;;;;;;5102891;28;24434;-46
2022/07/18 11:32:32;;;;;;;3.90;1.90;;;;;;;;;;5100745;28;24422;-47
2022/07/18 11:34:58;;;;;;;2.40;1.70;;;;;;;;;;5100453;28;24532;-46
2022/07/18 11:37:24;;;;;;;3.03;1.70;;;;;;;;;;5102477;28;24507;-47
2022/07/18 11:39:49;;;;;;;3.27;1.80;;;;;;;;;;5103218;28;24405;-47
2022/07/18 11:42:15;;;;;;;2.42;1.80;;;;;;;;;;5101750;28;24414;-46
2022/07/18 11:44:40;;;;;;;3.90;1.80;;;;;;;;;;5089064;28;24426;-46
2022/07/18 11:47:07;;;;;;;2.20;2.00;;;;;;;;;;5092635;28;24863;-46
2022/07/18 11:49:32;;;;;;;2.20;2.00;;;;;;;;;;5102108;28;24561;-46
2022/07/18 11:51:57;;;;;;;1.80;1.70;;;;;;;;;;5096491;28;24792;-48
2022/07/18 11:54:23;;;;;;;2.17;1.80;;;;;;;;;;5092425;28;24433;-47
2022/07/18 11:56:53;;;;;;;2.63;2.00;;;;;;;;;;5090643;28;25259;-46
2022/07/18 11:59:18;;;;;;;1.95;1.75;;;;;;;;;;5103291;28;24412;-47
2022/07/18 12:01:52;;;;;;;2.00;1.50;;;;;;;;;;5101830;28;24421;-47
2022/07/18 12:04:18;;;;;;;1.70;1.60;;;;;;;;;;5101838;28;24744;-46
2022/07/18 12:06:43;;;;;;;1.75;1.65;;;;;;;;;;5098747;28;24885;-46
2022/07/18 12:09:08;;;;;;;1.90;1.60;;;;;;;;;;5103777;28;24496;-47
2022/07/18 12:11:35;;;;;;;3.30;2.20;;;;;;;;;;5102705;28;24486;-46
2022/07/18 12:14:01;;;;;;;2.20;2.00;;;;;;;;;;5101929;28;24521;-47
2022/07/18 12:16:36;;;;;;;2.17;1.73;;;;;;;;;;5102233;28;25012;-46
2022/07/18 12:19:07;;;;;;;2.63;1.80;;;;;;;;;;5100726;28;24430;-47
2022/07/18 12:21:39;;;;;;;2.00;1.80;;;;;;;;;;5086256;28;25090;-47
2022/07/18 12:24:17;;;;;;;2.87;1.83;;;;;;;;;;5092557;28;24544;-46
2022/07/18 12:26:42;;;;;;;1.73;1.63;;;;;;;;;;5086237;28;24413;-46
2022/07/18 12:29:08;;;;;;;2.10;1.90;;;;;;;;;;5091609;28;24886;-47
2022/07/18 12:31:38;;;;;;;2.10;1.90;;;;;;;;;;5099808;28;24576;-46
2022/07/18 12:34:10;;;;;;;2.20;1.77;;;;;;;;;;5090737;28;24409;-46
2022/07/18 12:36:49;;;;;;;2.25;2.05;;;;;;;;;;5106466;28;24764;-47
2022/07/18 12:39:24;;;;;;;2.50;1.70;;;;;;;;;;5105372;28;24452;-47
2022/07/18 12:41:49;;;;;;;2.63;1.98;;;;;;;;;;5106132;28;25381;-46
2022/07/18 12:44:14;;;;;;;2.30;2.10;;;;;;;;;;5096373;28;24430;-46
2022/07/18 12:46:39;;;;;;;3.03;1.70;;;;;;;;;;5085652;28;24418;-46
2022/07/18 12:49:05;;;;;;;1.90;1.67;;;;;;;;;;5100996;28;24453;-46
2022/07/18 12:51:30;;;;;;;2.00;1.80;;;;;;;;;;5106019;28;24946;-47
2022/07/18 12:53:55;;;;;;;1.90;1.80;;;;;;;;;;5103695;28;24418;-47
2022/07/18 12:56:20;;;;;;;2.17;1.80;;;;;;;;;;5102273;28;24422;-47
2022/07/18 12:58:45;;;;;;;2.28;2.10;;;;;;;;;;5096820;28;24421;-46
2022/07/18 13:01:11;;;;;;;1.92;1.80;;;;;;;;;;5105789;28;24444;-47
2022/07/18 13:03:36;;;;;;;2.00;1.70;;;;;;;;;;5105278;28;24835;-46
2022/07/18 13:06:01;;;;;;;3.63;1.90;;;;;;;;;;5100379;28;24788;-47
2022/07/18 13:08:27;;;;;;;1.92;1.70;;;;;;;;;;5095629;28;24928;-47
2022/07/18 13:10:52;;;;;;;1.80;1.60;;;;;;;;;;5086683;28;24457;-46
2022/07/18 13:13:17;;;;;;;1.98;1.80;;;;;;;;;;5103573;28;24432;-47
2022/07/18 13:15:42;;;;;;;2.20;2.00;;;;;;;;;;5094366;28;24955;-47
2022/07/18 13:18:08;;;;;;;2.50;1.70;;;;;;;;;;5100916;28;24417;-46
2022/07/18 13:20:33;;;;;;;2.78;2.20;;;;;;;;;;5103969;28;24426;-47
2022/07/18 13:23:03;;;;;;;2.67;1.80;;;;;;;;;;5099259;28;24792;-46
2022/07/18 13:25:29;;;;;;;2.10;2.00;;;;;;;;;;5086575;28;24806;-46
2022/07/18 13:27:54;;;;;;;2.83;2.00;;;;;;;;;;5091278;28;24454;-46
2022/07/18 13:30:19;;;;;;;3.13;1.90;;;;;;;;;;5084280;28;24845;-46
2022/07/18 13:32:45;;;;;;;2.27;2.10;;;;;;;;;;5089939;28;24841;-47
2022/07/18 13:35:10;;;;;;;3.70;2.22;;;;;;;;;;5105327;28;24401;-47
2022/07/18 13:37:35;;;;;;;1.90;1.70;;;;;;;;;;5103320;28;24429;-46
2022/07/18 13:40:01;;;;;;;3.37;2.10;;;;;;;;;;5096621;28;24438;-46
2022/07/18 13:42:26;;;;;;;2.25;2.05;;;;;;;;;;5101156;28;24531;-46
2022/07/18 13:44:51;;;;;;;2.77;1.97;;;;;;;;;;5105149;28;24436;-46
2022/07/18 13:47:16;;;;;;;2.33;1.90;;;;;;;;;;5103822;28;24429;-46
2022/07/18 13:49:42;;;;;;;1.80;1.70;;;;;;;;;;5104740;28;24861;-46
2022/07/18 13:52:07;;;;;;;2.10;1.90;;;;;;;;;;5101611;28;24959;-46
2022/07/18 13:54:32;;;;;;;1.98;1.77;;;;;;;;;;5090244;28;24498;-46
2022/07/18 13:56:57;;;;;;;1.90;1.65;;;;;;;;;;5103560;28;24428;-46
2022/07/18 13:59:22;;;;;;;2.20;2.00;;;;;;;;;;5103886;28;25003;-46
2022/07/18 14:01:49;;;;;;;2.17;1.97;;;;;;;;;;5104181;28;24488;-46
2022/07/18 14:04:14;;;;;;;2.15;1.95;;;;;;;;;;5099671;28;24418;-46
2022/07/18 14:06:39;;;;;;;3.00;1.90;;;;;;;;;;5096730;28;24433;-46
2022/07/18 14:09:05;;;;;;;1.80;1.70;;;;;;;;;;5104552;28;24405;-46
2022/07/18 14:11:32;;;;;;;2.17;1.93;;;;;;;;;;5103089;28;24433;-46
2022/07/18 14:13:57;;;;;;;1.90;1.77;;;;;;;;;;5085905;28;24426;-46
2022/07/18 14:16:22;;;;;;;3.43;1.70;;;;;;;;;;5092347;28;24985;-46
2022/07/18 14:18:47;;;;;;;2.55;1.90;;;;;;;;;;5095821;28;24409;-46
2022/07/18 14:21:12;;;;;;;1.98;1.88;;;;;;;;;;5096181;28;24525;-49
2022/07/18 14:23:37;;;;;;;1.80;1.70;;;;;;;;;;5087931;28;24418;-46
2022/07/18 14:26:03;;;;;;;3.55;1.98;;;;;;;;;;5088654;28;24421;-46
2022/07/18 14:28:28;;;;;;;1.80;1.70;;;;;;;;;;5094531;28;24601;-46
2022/07/18 14:30:53;;;;;;;2.00;1.80;;;;;;;;;;5100195;27;24437;-46
2022/07/18 14:33:18;;;;;;;1.93;1.70;;;;;;;;;;5084781;28;25036;-45
2022/07/18 14:35:43;;;;;;;2.27;1.80;;;;;;;;;;5083480;28;24928;-46
2022/07/18 14:38:08;;;;;;;2.00;1.80;;;;;;;;;;5084831;28;24421;-46
2022/07/18 14:40:34;;;;;;;2.75;1.70;;;;;;;;;;5084336;28;24433;-46